createdAt,value
2022-10-20T00:01:59.874Z,8.97
2022-10-20T00:04:29.742Z,9.17
2022-10-20T00:06:57.707Z,10.50
2022-10-20T00:09:27.119Z,9.03
2022-10-20T00:11:55.105Z,9.77
2022-10-20T00:14:23.054Z,8.87
2022-10-20T00:16:50.984Z,8.57
2022-10-20T00:19:18.998Z,8.90
2022-10-20T00:21:46.959Z,10.73
2022-10-20T00:24:14.889Z,9.50
2022-10-20T00:26:44.195Z,9.50
2022-10-20T00:29:12.606Z,9.17
2022-10-20T00:31:40.584Z,7.57
2022-10-20T00:34:08.545Z,6.33
2022-10-20T00:36:36.468Z,6.70
2022-10-20T00:39:05.634Z,6.80
2022-10-20T00:41:34.190Z,7.27
2022-10-20T00:44:03.906Z,6.47
2022-10-20T00:46:34.396Z,6.00
2022-10-20T00:49:03.987Z,5.70
2022-10-20T00:51:32.249Z,6.17
2022-10-20T00:54:02.406Z,5.57
2022-10-20T00:56:30.407Z,7.40
2022-10-20T00:58:58.353Z,7.00
2022-10-20T01:01:27.968Z,5.43
2022-10-20T01:03:56.013Z,6.50
2022-10-20T01:06:24.090Z,6.20
2022-10-20T01:08:52.366Z,6.90
2022-10-20T01:11:24.672Z,7.83
2022-10-20T01:14:12.051Z,6.73
2022-10-20T01:16:46.798Z,7.97
2022-10-20T01:19:34.261Z,7.70
2022-10-20T01:22:12.668Z,7.17
2022-10-20T01:24:50.281Z,7.70
2022-10-20T01:27:28.557Z,6.60
2022-10-20T01:29:59.407Z,6.40
2022-10-20T01:32:30.476Z,7.30
2022-10-20T01:35:01.362Z,6.80
2022-10-20T01:37:48.551Z,8.20
2022-10-20T01:40:20.011Z,6.57
2022-10-20T01:42:50.197Z,7.70
2022-10-20T01:45:18.669Z,7.90
2022-10-20T01:47:46.774Z,8.73
2022-10-20T01:50:14.705Z,8.63
2022-10-20T01:52:42.657Z,7.83
2022-10-20T01:55:14.791Z,10.00
2022-10-20T01:57:48.707Z,8.43
2022-10-20T02:00:18.109Z,7.23
2022-10-20T02:02:57.495Z,9.00
2022-10-20T02:05:34.523Z,7.87
2022-10-20T02:08:06.850Z,8.43
2022-10-20T02:10:37.484Z,7.67
2022-10-20T02:13:06.099Z,8.43
2022-10-20T02:15:36.082Z,8.50
2022-10-20T02:18:05.338Z,7.87
2022-10-20T02:20:33.404Z,7.47
2022-10-20T02:23:01.616Z,8.73
2022-10-20T02:25:29.600Z,10.23
2022-10-20T02:27:57.568Z,9.03
2022-10-20T02:30:25.630Z,9.40
2022-10-20T02:32:54.988Z,8.80
2022-10-20T02:35:24.607Z,9.13
2022-10-20T02:37:52.571Z,10.50
2022-10-20T02:40:22.293Z,7.53
2022-10-20T02:42:50.303Z,9.70
2022-10-20T02:45:18.556Z,9.10
2022-10-20T02:47:46.492Z,12.27
2022-10-20T02:50:17.136Z,10.90
2022-10-20T02:52:45.127Z,10.60
2022-10-20T02:55:13.151Z,10.50
2022-10-20T02:57:41.193Z,9.93
2022-10-20T03:00:10.181Z,11.03
2022-10-20T03:02:38.251Z,11.60
2022-10-20T03:05:06.923Z,11.37
2022-10-20T03:07:36.569Z,10.20
2022-10-20T03:10:05.244Z,12.23
2022-10-20T03:12:33.211Z,11.90
2022-10-20T03:15:01.214Z,12.17
2022-10-20T03:17:29.175Z,11.50
2022-10-20T03:19:57.149Z,10.33
2022-10-20T03:22:25.225Z,11.53
2022-10-20T03:24:54.570Z,14.57
2022-10-20T03:27:22.566Z,13.13
2022-10-20T03:29:50.545Z,12.90
2022-10-20T03:32:18.607Z,11.90
2022-10-20T03:34:46.589Z,12.10
2022-10-20T03:37:14.571Z,10.83
2022-10-20T03:39:42.862Z,12.00
2022-10-20T03:42:12.214Z,10.60
2022-10-20T03:44:40.150Z,10.40
2022-10-20T03:47:08.136Z,12.10
2022-10-20T03:49:36.074Z,12.73
2022-10-20T03:52:04.092Z,13.73
2022-10-20T03:54:32.057Z,11.03
2022-10-20T03:57:00.038Z,10.57
2022-10-20T03:59:30.494Z,13.47
2022-10-20T04:01:58.708Z,13.40
2022-10-20T04:04:26.791Z,12.90
2022-10-20T04:06:54.739Z,14.70
2022-10-20T04:09:22.659Z,14.33
2022-10-20T04:11:50.603Z,14.37
2022-10-20T04:14:18.596Z,12.57
2022-10-20T04:16:47.884Z,14.27
2022-10-20T04:19:16.046Z,15.90
2022-10-20T04:21:43.978Z,15.80
2022-10-20T04:24:12.040Z,18.00
2022-10-20T04:26:40.037Z,15.23
2022-10-20T04:29:08.031Z,19.83
2022-10-20T04:31:36.007Z,17.43
2022-10-20T04:34:05.325Z,16.20
2022-10-20T04:36:33.293Z,16.40
2022-10-20T04:39:01.285Z,16.20
2022-10-20T04:41:29.200Z,16.90
2022-10-20T04:43:57.246Z,16.37
2022-10-20T04:46:26.741Z,18.57
2022-10-20T04:48:54.808Z,14.73
2022-10-20T04:51:24.129Z,16.70
2022-10-20T04:53:52.159Z,15.63
2022-10-20T04:56:21.261Z,18.00
2022-10-20T04:58:49.937Z,15.27
2022-10-20T05:01:18.241Z,15.43
2022-10-20T05:03:46.194Z,14.60
2022-10-20T05:06:15.330Z,15.80
2022-10-20T05:08:46.687Z,16.97
2022-10-20T05:11:15.043Z,17.10
2022-10-20T05:13:42.979Z,15.73
2022-10-20T05:16:10.967Z,17.37
2022-10-20T05:18:39.010Z,16.90
2022-10-20T05:21:09.470Z,16.27
2022-10-20T05:23:38.135Z,15.33
2022-10-20T05:26:08.154Z,18.23
2022-10-20T05:28:36.122Z,20.43
2022-10-20T05:31:04.090Z,19.50
2022-10-20T05:33:32.081Z,17.90
2022-10-20T05:36:00.031Z,18.30
2022-10-20T05:38:28.000Z,17.17
2022-10-20T05:40:55.977Z,16.23
2022-10-20T05:43:25.370Z,15.53
2022-10-20T05:45:55.273Z,17.00
2022-10-20T05:48:23.194Z,17.00
2022-10-20T05:50:51.231Z,17.60
2022-10-20T05:53:19.879Z,16.47
2022-10-20T05:55:47.888Z,17.47
2022-10-20T05:58:17.672Z,16.63
2022-10-20T06:00:53.022Z,14.03
2022-10-20T06:03:23.747Z,14.20
2022-10-20T06:05:58.730Z,14.07
2022-10-20T06:08:26.819Z,14.23
2022-10-20T06:10:54.811Z,14.60
2022-10-20T06:13:22.790Z,13.60
2022-10-20T06:15:52.161Z,13.43
2022-10-20T06:18:20.115Z,12.77
2022-10-20T06:20:48.091Z,13.17
2022-10-20T06:23:16.027Z,12.97
2022-10-20T06:25:44.049Z,13.10
2022-10-20T06:28:11.967Z,11.87
2022-10-20T06:30:39.968Z,12.07
2022-10-20T06:33:12.408Z,11.60
2022-10-20T06:35:40.386Z,14.03
2022-10-20T06:38:08.355Z,12.00
2022-10-20T06:40:36.320Z,10.93
2022-10-20T06:43:04.291Z,12.07
2022-10-20T06:45:32.263Z,12.13
2022-10-20T06:48:00.208Z,12.20
2022-10-20T06:50:29.572Z,11.30
2022-10-20T06:52:57.505Z,11.70
2022-10-20T06:55:25.567Z,12.23
2022-10-20T06:57:53.528Z,11.77
2022-10-20T07:00:21.597Z,10.90
2022-10-20T07:02:49.587Z,11.77
2022-10-20T07:05:17.740Z,11.53
2022-10-20T07:07:47.085Z,10.60
2022-10-20T07:10:15.020Z,10.73
2022-10-20T07:12:42.959Z,10.10
2022-10-20T07:15:11.715Z,10.07
2022-10-20T07:17:39.654Z,10.80
2022-10-20T07:20:08.648Z,10.87
2022-10-20T07:22:38.444Z,9.60
2022-10-20T07:25:09.388Z,10.77
2022-10-20T07:27:37.350Z,9.10
2022-10-20T07:30:05.956Z,9.77
2022-10-20T07:32:34.130Z,11.33
2022-10-20T07:35:02.416Z,11.03
2022-10-20T07:37:30.375Z,10.10
2022-10-20T07:39:58.367Z,11.03
2022-10-20T07:42:27.827Z,9.57
2022-10-20T07:44:55.744Z,10.17
2022-10-20T07:47:23.926Z,10.13
2022-10-20T07:49:51.965Z,9.77
2022-10-20T07:52:19.934Z,9.27
2022-10-20T07:54:47.916Z,10.73
2022-10-20T07:57:15.877Z,11.27
2022-10-20T07:59:45.276Z,10.23
2022-10-20T08:02:13.766Z,10.03
2022-10-20T08:04:44.078Z,10.13
2022-10-20T08:07:12.081Z,10.80
2022-10-20T08:09:40.090Z,11.53
2022-10-20T08:12:08.066Z,10.90
2022-10-20T08:14:38.018Z,11.07
2022-10-20T08:17:07.419Z,10.60
2022-10-20T08:19:51.338Z,9.33
2022-10-20T08:22:20.057Z,10.70
2022-10-20T08:24:48.014Z,10.80
2022-10-20T08:27:15.984Z,10.50
2022-10-20T08:29:50.787Z,10.43
2022-10-20T08:32:29.437Z,10.40
2022-10-20T08:34:57.403Z,10.77
2022-10-20T08:37:25.376Z,9.20
2022-10-20T08:39:53.336Z,9.40
2022-10-20T08:42:21.312Z,10.17
2022-10-20T08:44:49.263Z,10.80
2022-10-20T08:47:26.757Z,9.80
2022-10-20T08:49:58.800Z,8.30
2022-10-20T08:52:26.966Z,8.37
2022-10-20T08:54:56.164Z,9.90
2022-10-20T08:57:25.260Z,8.90
2022-10-20T08:59:53.845Z,8.57
2022-10-20T09:02:22.171Z,9.07
2022-10-20T09:04:51.372Z,8.23
2022-10-20T09:07:25.793Z,8.00
2022-10-20T09:09:53.806Z,8.33
2022-10-20T09:12:21.777Z,8.03
2022-10-20T09:14:49.742Z,8.20
2022-10-20T09:17:18.370Z,7.27
2022-10-20T09:19:48.779Z,8.40
2022-10-20T09:22:16.745Z,7.97
2022-10-20T09:24:46.117Z,7.07
2022-10-20T09:27:20.277Z,9.17
2022-10-20T09:29:48.166Z,8.10
2022-10-20T09:32:45.536Z,8.63
2022-10-20T09:35:20.446Z,7.47
2022-10-20T09:37:52.993Z,8.30
2022-10-20T09:40:22.749Z,7.03
2022-10-20T09:42:52.004Z,7.40
2022-10-20T09:45:22.247Z,8.30
2022-10-20T09:47:52.083Z,7.53
2022-10-20T09:50:21.285Z,8.70
2022-10-20T09:52:49.210Z,7.63
2022-10-20T09:55:28.389Z,7.87
2022-10-20T09:57:56.446Z,7.27
2022-10-20T10:00:36.905Z,7.30
2022-10-20T10:03:19.945Z,7.33
2022-10-20T10:05:49.698Z,7.87
2022-10-20T10:08:17.727Z,9.30
2022-10-20T10:10:47.538Z,7.30
2022-10-20T10:13:25.043Z,8.20
2022-10-20T10:16:03.960Z,7.10
2022-10-20T10:18:31.931Z,7.03
2022-10-20T10:21:01.641Z,7.10
2022-10-20T10:23:29.902Z,6.97
2022-10-20T10:26:02.118Z,6.87
2022-10-20T10:28:33.638Z,6.93
2022-10-20T10:31:21.887Z,7.73
2022-10-20T10:33:51.487Z,7.20
2022-10-20T10:36:27.039Z,8.27
2022-10-20T10:38:55.196Z,6.90
2022-10-20T10:41:27.469Z,6.33
2022-10-20T10:43:59.141Z,7.93
2022-10-20T10:46:28.640Z,6.93
2022-10-20T10:49:30.098Z,7.27
2022-10-20T10:52:02.165Z,6.50
2022-10-20T10:54:37.425Z,6.97
2022-10-20T10:57:12.658Z,6.27
2022-10-20T10:59:42.145Z,6.17
2022-10-20T11:02:43.827Z,9.23
2022-10-20T11:05:41.358Z,6.73
2022-10-20T11:08:15.179Z,6.50
2022-10-20T11:10:46.637Z,6.23
2022-10-20T11:13:26.030Z,5.40
2022-10-20T11:16:01.555Z,7.23
2022-10-20T11:18:55.267Z,6.67
2022-10-20T11:21:27.430Z,7.33
2022-10-20T11:24:09.824Z,6.03
2022-10-20T11:26:38.286Z,7.43
2022-10-20T11:29:11.034Z,7.10
2022-10-20T11:31:42.037Z,6.67
2022-10-20T11:34:13.083Z,7.17
2022-10-20T11:36:42.719Z,6.97
2022-10-20T11:39:13.048Z,7.60
2022-10-20T11:41:44.034Z,7.20
2022-10-20T11:44:15.936Z,8.03
2022-10-20T11:46:46.549Z,6.30
2022-10-20T11:49:14.550Z,5.97
2022-10-20T11:52:22.567Z,6.90
2022-10-20T11:55:00.562Z,6.50
2022-10-20T11:57:33.152Z,6.43
2022-10-20T12:00:23.729Z,6.47
2022-10-20T12:03:24.796Z,6.27
2022-10-20T12:06:10.163Z,6.40
2022-10-20T12:09:04.245Z,6.40
2022-10-20T12:11:34.881Z,6.20
2022-10-20T12:14:08.136Z,6.10
2022-10-20T12:17:05.228Z,6.87
2022-10-20T12:19:33.544Z,5.60
2022-10-20T12:22:02.806Z,5.40
2022-10-20T12:24:32.516Z,4.97
2022-10-20T12:27:28.853Z,6.00
2022-10-20T12:30:01.281Z,5.10
2022-10-20T12:32:58.541Z,5.63
2022-10-20T12:35:54.505Z,5.67
2022-10-20T12:38:22.658Z,6.47
2022-10-20T12:40:58.006Z,5.53
2022-10-20T12:43:28.322Z,5.03
2022-10-20T12:45:59.083Z,6.63
2022-10-20T12:48:28.378Z,5.50
2022-10-20T12:50:56.308Z,5.63
2022-10-20T12:53:26.894Z,5.67
2022-10-20T12:55:57.713Z,6.13
2022-10-20T12:58:29.939Z,6.17
2022-10-20T13:01:09.846Z,5.43
2022-10-20T13:03:47.124Z,6.10
2022-10-20T13:06:40.482Z,5.77
2022-10-20T13:09:23.980Z,5.30
2022-10-20T13:12:06.098Z,4.60
2022-10-20T13:14:50.217Z,3.90
2022-10-20T13:17:21.865Z,4.37
2022-10-20T13:20:00.380Z,4.70
2022-10-20T13:22:34.261Z,5.93
2022-10-20T13:25:02.274Z,4.43
2022-10-20T13:27:30.197Z,4.40
2022-10-20T13:29:58.167Z,4.00
2022-10-20T13:32:28.654Z,5.17
2022-10-20T13:35:00.169Z,9.27
2022-10-20T13:37:35.649Z,5.60
2022-10-20T13:40:10.642Z,4.23
2022-10-20T13:42:46.399Z,5.70
2022-10-20T13:45:21.081Z,5.23
2022-10-20T13:47:51.510Z,4.40
2022-10-20T13:50:22.684Z,4.03
2022-10-20T13:52:51.967Z,4.90
2022-10-20T13:55:21.352Z,4.30
2022-10-20T13:57:55.540Z,4.30
2022-10-20T14:00:25.622Z,3.90
2022-10-20T14:02:55.571Z,4.60
2022-10-20T14:05:24.953Z,4.50
2022-10-20T14:07:53.498Z,4.03
2022-10-20T14:10:26.263Z,4.13
2022-10-20T14:12:54.545Z,4.43
2022-10-20T14:15:27.736Z,4.17
2022-10-20T14:18:00.211Z,4.10
2022-10-20T14:20:30.301Z,4.50
2022-10-20T14:22:58.966Z,3.77
2022-10-20T14:25:27.638Z,4.47
2022-10-20T14:27:56.260Z,4.43
2022-10-20T14:30:26.664Z,4.53
2022-10-20T14:32:54.723Z,4.60
2022-10-20T14:35:30.249Z,4.40
2022-10-20T14:38:00.699Z,5.17
2022-10-20T14:40:29.489Z,5.27
2022-10-20T14:43:04.710Z,4.70
2022-10-20T14:48:06.094Z,4.33
2022-10-20T14:50:36.502Z,5.03
2022-10-20T14:53:27.378Z,4.73
2022-10-20T14:55:55.474Z,5.50
2022-10-20T14:58:32.312Z,5.87
2022-10-20T15:01:32.155Z,4.33
2022-10-20T15:06:41.627Z,5.70
2022-10-20T15:09:18.174Z,6.70
2022-10-20T15:11:46.197Z,5.70
2022-10-20T15:14:15.642Z,6.10
2022-10-20T15:16:44.779Z,6.07
2022-10-20T15:19:31.315Z,6.17
2022-10-20T15:22:11.142Z,6.70
2022-10-20T15:24:39.170Z,6.83
2022-10-20T15:27:07.168Z,6.67
2022-10-20T15:29:35.106Z,8.90
2022-10-20T15:32:03.067Z,7.60
2022-10-20T15:34:30.991Z,7.10
2022-10-20T15:36:58.942Z,6.33
2022-10-20T15:39:28.266Z,9.73
2022-10-20T15:41:56.210Z,10.10
2022-10-20T15:44:24.926Z,9.50
2022-10-20T15:46:54.234Z,9.67
2022-10-20T15:49:22.360Z,10.00
2022-10-20T15:51:51.459Z,10.63
2022-10-20T15:54:20.366Z,11.30
2022-10-20T15:56:49.854Z,10.93
2022-10-20T15:59:17.777Z,10.40
2022-10-20T16:01:45.721Z,11.30
2022-10-20T16:04:22.391Z,10.50
2022-10-20T16:06:52.462Z,10.03
2022-10-20T16:09:21.114Z,8.90
2022-10-20T16:11:50.486Z,8.80
2022-10-20T16:14:18.487Z,6.67
2022-10-20T16:16:46.474Z,7.60
2022-10-20T16:19:14.429Z,7.53
2022-10-20T16:21:42.394Z,7.50
2022-10-20T16:24:11.500Z,7.60
2022-10-20T16:26:39.471Z,12.90
2022-10-20T16:29:08.865Z,9.07
2022-10-20T16:31:36.851Z,10.40
2022-10-20T16:34:04.797Z,8.50
2022-10-20T16:36:32.776Z,9.67
2022-10-20T16:39:00.970Z,10.53
2022-10-20T16:41:29.016Z,9.33
2022-10-20T16:44:00.239Z,10.07
2022-10-20T16:46:30.236Z,9.27
2022-10-20T16:48:58.241Z,10.53
2022-10-20T16:51:26.198Z,9.53
2022-10-20T16:53:57.337Z,11.80
2022-10-20T16:56:27.643Z,11.33
2022-10-20T16:58:55.603Z,10.30
2022-10-20T17:01:23.933Z,9.07
2022-10-20T17:03:53.854Z,7.90
2022-10-20T17:06:22.842Z,8.13
2022-10-20T17:08:50.849Z,7.47
2022-10-20T17:11:19.630Z,6.60
2022-10-20T17:13:47.647Z,7.53
2022-10-20T17:16:16.985Z,8.50
2022-10-20T17:18:44.978Z,8.77
2022-10-20T17:21:14.426Z,7.30
2022-10-20T17:23:43.082Z,9.87
2022-10-20T17:26:12.672Z,11.03
2022-10-20T17:28:40.690Z,9.00
2022-10-20T17:31:09.150Z,7.37
2022-10-20T17:33:37.791Z,8.90
2022-10-20T17:36:06.503Z,8.30
2022-10-20T17:38:35.832Z,7.20
2022-10-20T17:41:04.463Z,9.43
2022-10-20T17:43:32.502Z,7.27
2022-10-20T17:46:01.368Z,7.47
2022-10-20T17:48:29.519Z,8.70
2022-10-20T17:51:01.772Z,10.13
2022-10-20T17:53:29.869Z,8.67
2022-10-20T17:56:02.809Z,8.30
2022-10-20T17:58:31.000Z,10.30
2022-10-20T18:01:08.571Z,9.13
2022-10-20T18:03:36.856Z,9.03
2022-10-20T18:06:09.241Z,10.00
2022-10-20T18:08:37.265Z,9.10
2022-10-20T18:11:09.970Z,9.40
2022-10-20T18:13:38.688Z,9.80
2022-10-20T18:16:08.114Z,9.93
2022-10-20T18:18:36.266Z,10.03
2022-10-20T18:21:04.433Z,10.57
2022-10-20T18:23:33.485Z,9.47
2022-10-20T18:26:06.320Z,9.70
2022-10-20T18:28:35.638Z,7.97
2022-10-20T18:31:07.274Z,8.87
2022-10-20T18:33:35.294Z,9.23
2022-10-20T18:36:04.418Z,8.17
2022-10-20T18:38:32.501Z,8.90
2022-10-20T18:41:05.295Z,7.97
2022-10-20T18:43:33.271Z,7.73
2022-10-20T18:46:02.963Z,9.67
2022-10-20T18:48:30.928Z,9.20
2022-10-20T18:50:59.767Z,8.00
2022-10-20T18:53:28.177Z,8.93
2022-10-20T18:56:00.259Z,10.87
2022-10-20T18:58:28.387Z,7.63
2022-10-20T19:01:00.279Z,8.23
2022-10-20T19:03:31.570Z,10.40
2022-10-20T19:06:00.387Z,9.13
2022-10-20T19:08:28.487Z,8.30
2022-10-20T19:10:56.532Z,7.07
2022-10-20T19:13:26.216Z,6.53
2022-10-20T19:15:54.157Z,6.60
2022-10-20T19:18:22.162Z,6.60
2022-10-20T19:20:58.007Z,7.03
2022-10-20T19:23:26.188Z,6.67
2022-10-20T19:26:07.316Z,7.13
2022-10-20T19:28:36.339Z,6.37
2022-10-20T19:31:06.338Z,6.33
2022-10-20T19:33:38.726Z,7.40
2022-10-20T19:36:08.271Z,6.70
2022-10-20T19:38:37.241Z,5.87
2022-10-20T19:41:05.314Z,6.43
2022-10-20T19:43:34.445Z,6.03
2022-10-20T19:46:02.391Z,7.00
2022-10-20T19:48:30.416Z,6.33
2022-10-20T19:50:58.368Z,6.33
2022-10-20T19:53:27.928Z,6.47
2022-10-20T19:55:55.972Z,5.73
2022-10-20T19:58:24.048Z,5.27
2022-10-20T20:00:52.855Z,5.17
2022-10-20T20:03:20.899Z,6.43
2022-10-20T20:05:48.902Z,5.60
2022-10-20T20:08:17.751Z,6.73
2022-10-20T20:10:53.371Z,4.80
2022-10-20T20:13:21.344Z,6.07
2022-10-20T20:15:49.366Z,6.50
2022-10-20T20:18:18.232Z,6.70
2022-10-20T20:20:46.997Z,6.60
2022-10-20T20:23:15.004Z,7.47
2022-10-20T20:25:44.540Z,7.53
2022-10-20T20:28:13.990Z,6.37
2022-10-20T20:30:41.956Z,5.80
2022-10-20T20:33:10.668Z,6.00
2022-10-20T20:35:38.657Z,5.67
2022-10-20T20:38:06.735Z,6.70
2022-10-20T20:40:34.698Z,5.40
2022-10-20T20:43:02.689Z,4.90
2022-10-20T20:45:32.051Z,5.40
2022-10-20T20:47:59.984Z,5.60
2022-10-20T20:50:28.010Z,5.90
2022-10-20T20:52:55.964Z,5.37
2022-10-20T20:55:23.924Z,4.20
2022-10-20T20:57:51.836Z,4.80
2022-10-20T21:00:19.815Z,4.93
2022-10-20T21:02:49.177Z,5.50
2022-10-20T21:05:17.269Z,5.83
2022-10-20T21:07:45.231Z,4.60
2022-10-20T21:10:13.203Z,5.60
2022-10-20T21:12:41.433Z,5.33
2022-10-20T21:15:10.307Z,5.30
2022-10-20T21:17:38.275Z,4.60
2022-10-20T21:20:08.925Z,4.50
2022-10-20T21:22:37.042Z,4.57
2022-10-20T21:25:05.918Z,4.67
2022-10-20T21:27:33.858Z,4.10
2022-10-20T21:30:01.879Z,4.47
2022-10-20T21:32:29.862Z,5.20
2022-10-20T21:34:57.807Z,5.67
2022-10-20T21:37:27.157Z,5.27
2022-10-20T21:39:55.248Z,5.80
2022-10-20T21:42:23.232Z,6.20
2022-10-20T21:44:51.171Z,7.13
2022-10-20T21:47:19.125Z,6.20
2022-10-20T21:49:47.100Z,6.43
2022-10-20T21:52:15.130Z,7.17
2022-10-20T21:54:44.561Z,7.33
2022-10-20T21:57:12.820Z,7.00
2022-10-20T21:59:40.816Z,7.00
2022-10-20T22:02:13.659Z,7.30
2022-10-20T22:04:41.614Z,7.63
2022-10-20T22:07:09.580Z,6.80
2022-10-20T22:09:37.521Z,7.80
2022-10-20T22:12:07.080Z,7.57
2022-10-20T22:14:35.073Z,7.47
2022-10-20T22:17:03.026Z,7.73
2022-10-20T22:19:31.058Z,7.17
2022-10-20T22:21:59.751Z,7.10
2022-10-20T22:24:27.940Z,6.43
2022-10-20T22:26:55.930Z,8.00
2022-10-20T22:29:25.264Z,7.97
2022-10-20T22:31:53.233Z,7.83
2022-10-20T22:34:21.199Z,7.37
2022-10-20T22:36:49.190Z,8.60
2022-10-20T22:39:17.132Z,8.07
2022-10-20T22:41:45.129Z,7.63
2022-10-20T22:44:13.084Z,6.57
2022-10-20T22:46:42.416Z,7.40
2022-10-20T22:49:10.389Z,7.07
2022-10-20T22:51:38.330Z,7.37
2022-10-20T22:54:08.069Z,6.60
2022-10-20T22:56:36.059Z,7.83
2022-10-20T22:59:04.002Z,7.90
2022-10-20T23:01:32.015Z,6.93
2022-10-20T23:04:01.431Z,8.23
2022-10-20T23:06:29.424Z,7.60
2022-10-20T23:08:57.476Z,6.40
2022-10-20T23:11:25.429Z,6.13
2022-10-20T23:13:53.428Z,7.57
2022-10-20T23:16:21.474Z,6.57
2022-10-20T23:18:49.458Z,7.83
2022-10-20T23:21:18.806Z,6.90
2022-10-20T23:23:46.782Z,6.83
2022-10-20T23:26:14.669Z,7.77
2022-10-20T23:28:42.665Z,7.37
2022-10-20T23:31:11.366Z,7.43
2022-10-20T23:33:39.415Z,6.60
2022-10-20T23:36:08.055Z,5.40
2022-10-20T23:38:37.393Z,6.37
2022-10-20T23:41:05.634Z,6.13
2022-10-20T23:43:33.728Z,5.90
2022-10-20T23:46:01.830Z,6.73
2022-10-20T23:48:29.792Z,6.13
2022-10-20T23:50:57.748Z,6.13
2022-10-20T23:53:25.842Z,5.53
2022-10-20T23:55:55.176Z,5.97
2022-10-20T23:58:23.338Z,6.10
